sensor_id;sensor_type;location;lat;lon;timestamp;pressure;altitude;pressure_sealevel;temperature;humidity
42761;BME280;31672;47.638;19.026;2023-02-12T00:01:16;101344.09;;;3.23;84.16
42761;BME280;31672;47.638;19.026;2023-02-12T00:06:20;101338.47;;;3.30;83.85
42761;BME280;31672;47.638;19.026;2023-02-12T00:11:26;101343.47;;;3.34;84.51
42761;BME280;31672;47.638;19.026;2023-02-12T00:16:29;101330.16;;;3.37;84.41
42761;BME280;31672;47.638;19.026;2023-02-12T00:21:32;101340.47;;;3.40;84.46
42761;BME280;31672;47.638;19.026;2023-02-12T00:26:37;101354.28;;;3.44;84.84
42761;BME280;31672;47.638;19.026;2023-02-12T00:31:40;101349.47;;;3.51;85.31
42761;BME280;31672;47.638;19.026;2023-02-12T00:36:44;101331.53;;;3.57;85.06
42761;BME280;31672;47.638;19.026;2023-02-12T00:41:46;101316.34;;;3.62;85.08
42761;BME280;31672;47.638;19.026;2023-02-12T00:46:49;101325.72;;;3.66;84.73
42761;BME280;31672;47.638;19.026;2023-02-12T00:51:53;101321.69;;;3.61;84.73
42761;BME280;31672;47.638;19.026;2023-02-12T00:56:56;101317.91;;;3.65;84.90
42761;BME280;31672;47.638;19.026;2023-02-12T01:01:59;101330.88;;;3.68;85.25
42761;BME280;31672;47.638;19.026;2023-02-12T01:07:02;101327.13;;;3.72;85.19
42761;BME280;31672;47.638;19.026;2023-02-12T01:12:06;101327.03;;;3.73;84.81
42761;BME280;31672;47.638;19.026;2023-02-12T01:17:09;101315.00;;;3.69;84.81
42761;BME280;31672;47.638;19.026;2023-02-12T01:22:12;101313.59;;;3.64;84.64
42761;BME280;31672;47.638;19.026;2023-02-12T01:27:15;101320.66;;;3.63;84.91
42761;BME280;31672;47.638;19.026;2023-02-12T01:32:18;101321.50;;;3.64;84.99
42761;BME280;31672;47.638;19.026;2023-02-12T01:37:21;101321.69;;;3.61;85.08
42761;BME280;31672;47.638;19.026;2023-02-12T01:42:25;101309.41;;;3.61;84.90
42761;BME280;31672;47.638;19.026;2023-02-12T01:47:29;101317.56;;;3.57;85.06
42761;BME280;31672;47.638;19.026;2023-02-12T01:52:34;101318.50;;;3.56;85.00
42761;BME280;31672;47.638;19.026;2023-02-12T01:57:42;101314.09;;;3.56;85.47
42761;BME280;31672;47.638;19.026;2023-02-12T02:02:55;101314.00;;;3.58;85.37
42761;BME280;31672;47.638;19.026;2023-02-12T02:08:00;101292.50;;;3.51;85.46
42761;BME280;31672;47.638;19.026;2023-02-12T02:13:03;101287.97;;;3.53;85.38
42761;BME280;31672;47.638;19.026;2023-02-12T02:18:58;101281.44;;;3.60;85.19
42761;BME280;31672;47.638;19.026;2023-02-12T02:24:36;101292.47;;;3.65;85.29
42761;BME280;31672;47.638;19.026;2023-02-12T02:41:07;101316.63;;;3.58;85.50
42761;BME280;31672;47.638;19.026;2023-02-12T02:51:33;101329.28;;;3.65;85.27
42761;BME280;31672;47.638;19.026;2023-02-12T02:56:42;101339.78;;;3.65;85.00
42761;BME280;31672;47.638;19.026;2023-02-12T03:02:00;101339.03;;;3.63;84.51
42761;BME280;31672;47.638;19.026;2023-02-12T03:07:16;101340.94;;;3.61;84.66
42761;BME280;31672;47.638;19.026;2023-02-12T03:12:37;101348.91;;;3.60;84.79
42761;BME280;31672;47.638;19.026;2023-02-12T03:17:47;101343.84;;;3.57;85.15
42761;BME280;31672;47.638;19.026;2023-02-12T03:23:13;101349.78;;;3.60;85.61
42761;BME280;31672;47.638;19.026;2023-02-12T03:28:26;101364.31;;;3.66;85.43
42761;BME280;31672;47.638;19.026;2023-02-12T03:44:55;101396.22;;;3.60;85.15
42761;BME280;31672;47.638;19.026;2023-02-12T03:50:18;101402.25;;;3.62;85.54
42761;BME280;31672;47.638;19.026;2023-02-12T03:55:24;101403.09;;;3.62;85.39
42761;BME280;31672;47.638;19.026;2023-02-12T04:00:27;101422.22;;;3.50;85.46
42761;BME280;31672;47.638;19.026;2023-02-12T04:05:30;101442.19;;;3.38;85.71
42761;BME280;31672;47.638;19.026;2023-02-12T04:11:02;101444.97;;;3.21;85.63
42761;BME280;31672;47.638;19.026;2023-02-12T04:16:26;101488.75;;;2.90;85.62
42761;BME280;31672;47.638;19.026;2023-02-12T04:22:23;101480.94;;;2.59;86.30
42761;BME280;31672;47.638;19.026;2023-02-12T04:33:09;101478.53;;;2.38;88.98
42761;BME280;31672;47.638;19.026;2023-02-12T04:38:26;101479.22;;;2.26;88.86
42761;BME280;31672;47.638;19.026;2023-02-12T04:43:34;101506.34;;;2.09;88.84
42761;BME280;31672;47.638;19.026;2023-02-12T04:48:57;101508.78;;;1.79;88.85
42761;BME280;31672;47.638;19.026;2023-02-12T04:54:00;101526.31;;;1.61;89.43
42761;BME280;31672;47.638;19.026;2023-02-12T04:59:03;101538.56;;;1.44;89.97
42761;BME280;31672;47.638;19.026;2023-02-12T05:04:09;101530.97;;;1.39;90.59
42761;BME280;31672;47.638;19.026;2023-02-12T05:09:16;101547.00;;;1.50;92.16
42761;BME280;31672;47.638;19.026;2023-02-12T05:14:23;101540.56;;;1.56;92.33
42761;BME280;31672;47.638;19.026;2023-02-12T05:19:26;101547.03;;;1.49;92.33
42761;BME280;31672;47.638;19.026;2023-02-12T05:24:29;101557.16;;;1.39;92.68
42761;BME280;31672;47.638;19.026;2023-02-12T05:29:32;101557.81;;;1.25;92.59
42761;BME280;31672;47.638;19.026;2023-02-12T05:34:35;101571.44;;;1.15;92.71
42761;BME280;31672;47.638;19.026;2023-02-12T05:39:38;101578.13;;;1.03;92.96
42761;BME280;31672;47.638;19.026;2023-02-12T05:44:41;101580.09;;;0.98;93.23
42761;BME280;31672;47.638;19.026;2023-02-12T05:49:44;101598.53;;;1.14;95.03
42761;BME280;31672;47.638;19.026;2023-02-12T05:54:50;101593.50;;;1.28;95.50
42761;BME280;31672;47.638;19.026;2023-02-12T05:59:53;101611.75;;;1.29;95.01
42761;BME280;31672;47.638;19.026;2023-02-12T06:04:56;101611.28;;;1.21;95.18
42761;BME280;31672;47.638;19.026;2023-02-12T06:09:59;101624.50;;;1.18;95.47
42761;BME280;31672;47.638;19.026;2023-02-12T06:15:02;101628.81;;;1.19;96.04
42761;BME280;31672;47.638;19.026;2023-02-12T06:20:05;101640.53;;;1.29;96.38
42761;BME280;31672;47.638;19.026;2023-02-12T06:25:08;101643.09;;;1.31;96.21
42761;BME280;31672;47.638;19.026;2023-02-12T06:30:12;101657.06;;;1.49;97.32
42761;BME280;31672;47.638;19.026;2023-02-12T06:35:15;101664.22;;;1.81;97.84
42761;BME280;31672;47.638;19.026;2023-02-12T06:40:18;101676.09;;;2.23;98.36
42761;BME280;31672;47.638;19.026;2023-02-12T06:45:22;101685.41;;;2.46;98.50
42761;BME280;31672;47.638;19.026;2023-02-12T06:50:25;101688.91;;;2.62;98.16
42761;BME280;31672;47.638;19.026;2023-02-12T06:55:29;101681.19;;;2.77;97.86
42761;BME280;31672;47.638;19.026;2023-02-12T07:00:32;101692.97;;;2.85;97.78
42761;BME280;31672;47.638;19.026;2023-02-12T07:05:38;101693.72;;;2.87;97.67
42761;BME280;31672;47.638;19.026;2023-02-12T07:10:41;101706.19;;;3.00;97.42
42761;BME280;31672;47.638;19.026;2023-02-12T07:15:44;101708.75;;;3.17;97.21
42761;BME280;31672;47.638;19.026;2023-02-12T07:20:47;101727.06;;;3.34;97.43
42761;BME280;31672;47.638;19.026;2023-02-12T07:26:10;101730.91;;;3.60;97.07
42761;BME280;31672;47.638;19.026;2023-02-12T07:31:19;101726.59;;;4.49;98.48
42761;BME280;31672;47.638;19.026;2023-02-12T07:36:26;101718.13;;;6.25;97.82
42761;BME280;31672;47.638;19.026;2023-02-12T07:41:34;101709.84;;;7.68;91.27
42761;BME280;31672;47.638;19.026;2023-02-12T07:46:44;101720.75;;;8.69;82.53
42761;BME280;31672;47.638;19.026;2023-02-12T07:51:50;101720.22;;;9.65;78.44
42761;BME280;31672;47.638;19.026;2023-02-12T07:56:53;101720.06;;;10.42;72.98
42761;BME280;31672;47.638;19.026;2023-02-12T08:01:56;101729.53;;;10.56;66.94
42761;BME280;31672;47.638;19.026;2023-02-12T08:07:00;101731.19;;;10.36;63.71
42761;BME280;31672;47.638;19.026;2023-02-12T08:12:03;101742.88;;;9.80;63.05
42761;BME280;31672;47.638;19.026;2023-02-12T08:17:06;101747.59;;;9.77;62.92
42761;BME280;31672;47.638;19.026;2023-02-12T08:22:10;101750.34;;;9.86;61.77
42761;BME280;31672;47.638;19.026;2023-02-12T08:27:13;101750.44;;;10.28;62.80
42761;BME280;31672;47.638;19.026;2023-02-12T08:32:15;101763.16;;;10.87;60.71
42761;BME280;31672;47.638;19.026;2023-02-12T08:37:19;101755.84;;;11.50;58.67
42761;BME280;31672;47.638;19.026;2023-02-12T08:42:22;101750.78;;;11.97;57.88
42761;BME280;31672;47.638;19.026;2023-02-12T08:47:27;101763.97;;;12.28;56.10
42761;BME280;31672;47.638;19.026;2023-02-12T08:52:34;101766.91;;;12.44;54.13
42761;BME280;31672;47.638;19.026;2023-02-12T08:57:37;101775.75;;;12.54;54.16
42761;BME280;31672;47.638;19.026;2023-02-12T09:02:40;101781.66;;;12.39;52.99
42761;BME280;31672;47.638;19.026;2023-02-12T09:07:43;101783.03;;;11.94;53.43
42761;BME280;31672;47.638;19.026;2023-02-12T09:12:46;101790.75;;;12.07;54.15
42761;BME280;31672;47.638;19.026;2023-02-12T09:17:50;101795.25;;;12.45;53.07
42761;BME280;31672;47.638;19.026;2023-02-12T09:22:53;101797.56;;;12.97;52.41
42761;BME280;31672;47.638;19.026;2023-02-12T09:27:56;101802.53;;;13.29;51.47
42761;BME280;31672;47.638;19.026;2023-02-12T09:32:59;101805.56;;;13.71;50.66
42761;BME280;31672;47.638;19.026;2023-02-12T09:38:03;101809.84;;;14.09;49.57
42761;BME280;31672;47.638;19.026;2023-02-12T09:43:20;101817.00;;;14.27;47.29
42761;BME280;31672;47.638;19.026;2023-02-12T09:54:36;101809.78;;;14.55;45.70
42761;BME280;31672;47.638;19.026;2023-02-12T09:59:50;101810.47;;;14.57;46.24
42761;BME280;31672;47.638;19.026;2023-02-12T10:04:56;101811.41;;;15.17;45.97
42761;BME280;31672;47.638;19.026;2023-02-12T10:21:38;101847.38;;;13.90;45.30
42761;BME280;31672;47.638;19.026;2023-02-12T10:26:51;101843.41;;;14.22;44.71
42761;BME280;31672;47.638;19.026;2023-02-12T10:31:59;101847.59;;;14.24;44.16
42761;BME280;31672;47.638;19.026;2023-02-12T10:42:35;101844.09;;;13.41;45.33
42761;BME280;31672;47.638;19.026;2023-02-12T10:47:40;101837.28;;;13.09;45.68
42761;BME280;31672;47.638;19.026;2023-02-12T10:52:52;101844.72;;;13.06;45.87
42761;BME280;31672;47.638;19.026;2023-02-12T10:57:58;101842.19;;;13.04;46.04
42761;BME280;31672;47.638;19.026;2023-02-12T11:13:35;101850.50;;;13.58;43.59
42761;BME280;31672;47.638;19.026;2023-02-12T11:18:39;101851.50;;;12.81;44.88
42761;BME280;31672;47.638;19.026;2023-02-12T11:23:43;101855.25;;;12.11;45.89
42761;BME280;31672;47.638;19.026;2023-02-12T11:29:00;101857.16;;;11.49;47.17
42761;BME280;31672;47.638;19.026;2023-02-12T11:34:17;101853.97;;;11.04;48.13
42761;BME280;31672;47.638;19.026;2023-02-12T11:39:32;101860.78;;;10.76;49.11
42761;BME280;31672;47.638;19.026;2023-02-12T11:44:38;101863.06;;;10.48;49.82
42761;BME280;31672;47.638;19.026;2023-02-12T11:49:59;101857.91;;;10.35;50.74
42761;BME280;31672;47.638;19.026;2023-02-12T11:55:27;101855.38;;;10.34;50.87
42761;BME280;31672;47.638;19.026;2023-02-12T12:00:38;101857.03;;;10.46;51.03
42761;BME280;31672;47.638;19.026;2023-02-12T12:06:04;101842.88;;;10.78;51.37
42761;BME280;31672;47.638;19.026;2023-02-12T12:11:15;101854.28;;;11.10;50.42
42761;BME280;31672;47.638;19.026;2023-02-12T12:16:41;101834.94;;;11.08;50.14
42761;BME280;31672;47.638;19.026;2023-02-12T12:22:27;101844.56;;;10.99;49.83
42761;BME280;31672;47.638;19.026;2023-02-12T12:27:42;101836.00;;;10.75;49.51
42761;BME280;31672;47.638;19.026;2023-02-12T12:33:19;101833.06;;;10.57;49.64
42761;BME280;31672;47.638;19.026;2023-02-12T12:55:58;101831.06;;;10.70;50.24
42761;BME280;31672;47.638;19.026;2023-02-12T13:17:09;101827.03;;;10.12;51.15
42761;BME280;31672;47.638;19.026;2023-02-12T13:22:30;101825.88;;;9.93;51.66
42761;BME280;31672;47.638;19.026;2023-02-12T13:27:39;101836.16;;;9.87;52.25
42761;BME280;31672;47.638;19.026;2023-02-12T13:33:22;101840.28;;;9.80;52.39
42761;BME280;31672;47.638;19.026;2023-02-12T13:38:54;101860.44;;;9.60;53.24
42761;BME280;31672;47.638;19.026;2023-02-12T13:44:28;101864.16;;;9.24;54.58
42761;BME280;31672;47.638;19.026;2023-02-12T13:49:53;101865.66;;;8.93;55.71
42761;BME280;31672;47.638;19.026;2023-02-12T14:01:02;101863.22;;;8.54;57.32
42761;BME280;31672;47.638;19.026;2023-02-12T14:06:17;101865.94;;;8.42;57.78
42761;BME280;31672;47.638;19.026;2023-02-12T14:11:26;101867.66;;;8.30;58.06
42761;BME280;31672;47.638;19.026;2023-02-12T14:21:34;101874.31;;;8.12;59.06
42761;BME280;31672;47.638;19.026;2023-02-12T14:26:37;101873.91;;;8.05;59.29
42761;BME280;31672;47.638;19.026;2023-02-12T14:31:41;101882.06;;;8.02;59.60
42761;BME280;31672;47.638;19.026;2023-02-12T14:36:46;101893.59;;;8.01;59.92
42761;BME280;31672;47.638;19.026;2023-02-12T14:41:53;101898.69;;;8.04;60.13
42761;BME280;31672;47.638;19.026;2023-02-12T14:47:02;101897.94;;;8.02;60.23
42761;BME280;31672;47.638;19.026;2023-02-12T14:57:29;101898.53;;;7.82;60.24
42761;BME280;31672;47.638;19.026;2023-02-12T15:02:38;101906.56;;;7.67;60.61
42761;BME280;31672;47.638;19.026;2023-02-12T15:08:27;101905.63;;;7.43;60.86
42761;BME280;31672;47.638;19.026;2023-02-12T15:13:59;101901.72;;;7.23;61.19
42761;BME280;31672;47.638;19.026;2023-02-12T15:24:31;101900.16;;;6.81;61.79
42761;BME280;31672;47.638;19.026;2023-02-12T15:29:49;101898.81;;;6.48;62.28
42761;BME280;31672;47.638;19.026;2023-02-12T15:34:55;101909.63;;;6.16;63.17
42761;BME280;31672;47.638;19.026;2023-02-12T15:40:00;101912.69;;;5.82;63.96
42761;BME280;31672;47.638;19.026;2023-02-12T15:50:18;101927.41;;;5.13;65.65
42761;BME280;31672;47.638;19.026;2023-02-12T15:55:32;101943.41;;;4.80;66.77
42761;BME280;31672;47.638;19.026;2023-02-12T16:00:43;101945.28;;;4.46;67.42
42761;BME280;31672;47.638;19.026;2023-02-12T16:05:50;101950.81;;;4.10;68.50
42761;BME280;31672;47.638;19.026;2023-02-12T16:10:54;101969.22;;;3.77;69.45
42761;BME280;31672;47.638;19.026;2023-02-12T16:16:19;101972.69;;;3.44;70.13
42761;BME280;31672;47.638;19.026;2023-02-12T16:21:22;101979.59;;;3.12;71.51
42761;BME280;31672;47.638;19.026;2023-02-12T16:26:28;101983.47;;;2.86;72.34
42761;BME280;31672;47.638;19.026;2023-02-12T16:31:31;101994.94;;;2.66;73.61
42761;BME280;31672;47.638;19.026;2023-02-12T16:36:35;102001.75;;;2.52;74.13
42761;BME280;31672;47.638;19.026;2023-02-12T16:41:55;101997.97;;;2.40;74.98
42761;BME280;31672;47.638;19.026;2023-02-12T16:46:59;102020.13;;;2.33;76.42
42761;BME280;31672;47.638;19.026;2023-02-12T16:52:33;102024.16;;;2.21;76.50
42761;BME280;31672;47.638;19.026;2023-02-12T16:57:36;102035.09;;;2.12;77.80
42761;BME280;31672;47.638;19.026;2023-02-12T17:02:39;102035.38;;;2.06;78.63
42761;BME280;31672;47.638;19.026;2023-02-12T17:07:42;102033.09;;;1.98;78.91
42761;BME280;31672;47.638;19.026;2023-02-12T17:12:51;102029.09;;;1.90;79.69
42761;BME280;31672;47.638;19.026;2023-02-12T17:17:54;102032.81;;;1.84;80.14
42761;BME280;31672;47.638;19.026;2023-02-12T17:22:57;102025.69;;;1.67;80.10
42761;BME280;31672;47.638;19.026;2023-02-12T17:28:01;102029.09;;;1.49;80.30
42761;BME280;31672;47.638;19.026;2023-02-12T17:33:04;102033.41;;;1.29;80.86
42761;BME280;31672;47.638;19.026;2023-02-12T17:38:08;102041.00;;;1.15;80.89
42761;BME280;31672;47.638;19.026;2023-02-12T17:43:11;102051.88;;;1.04;82.19
42761;BME280;31672;47.638;19.026;2023-02-12T17:48:16;102050.84;;;0.87;82.24
42761;BME280;31672;47.638;19.026;2023-02-12T17:53:19;102057.47;;;0.73;82.94
42761;BME280;31672;47.638;19.026;2023-02-12T17:58:22;102048.16;;;0.66;83.45
42761;BME280;31672;47.638;19.026;2023-02-12T18:03:25;102051.03;;;0.60;83.98
42761;BME280;31672;47.638;19.026;2023-02-12T18:08:29;102059.09;;;0.54;84.75
42761;BME280;31672;47.638;19.026;2023-02-12T18:13:32;102070.22;;;0.36;84.69
42761;BME280;31672;47.638;19.026;2023-02-12T18:18:38;102067.28;;;0.21;84.73
42761;BME280;31672;47.638;19.026;2023-02-12T18:23:42;102071.94;;;0.13;85.09
42761;BME280;31672;47.638;19.026;2023-02-12T18:28:45;102071.88;;;0.15;86.23
42761;BME280;31672;47.638;19.026;2023-02-12T18:33:49;102070.81;;;0.20;86.33
42761;BME280;31672;47.638;19.026;2023-02-12T18:38:53;102081.09;;;0.25;86.50
42761;BME280;31672;47.638;19.026;2023-02-12T18:43:57;102080.91;;;0.30;86.71
42761;BME280;31672;47.638;19.026;2023-02-12T18:49:01;102085.44;;;0.26;86.58
42761;BME280;31672;47.638;19.026;2023-02-12T18:54:09;102082.47;;;0.35;87.26
42761;BME280;31672;47.638;19.026;2023-02-12T18:59:14;102103.97;;;0.43;86.75
42761;BME280;31672;47.638;19.026;2023-02-12T19:04:20;102095.59;;;0.34;86.59
42761;BME280;31672;47.638;19.026;2023-02-12T19:09:25;102100.63;;;0.15;86.50
42761;BME280;31672;47.638;19.026;2023-02-12T19:14:29;102096.22;;;-0.08;86.00
42761;BME280;31672;47.638;19.026;2023-02-12T19:19:32;102098.66;;;-0.29;85.96
42761;BME280;31672;47.638;19.026;2023-02-12T19:24:35;102114.03;;;-0.46;85.91
42761;BME280;31672;47.638;19.026;2023-02-12T19:29:48;102118.25;;;-0.68;86.08
42761;BME280;31672;47.638;19.026;2023-02-12T19:34:51;102130.19;;;-0.88;86.24
42761;BME280;31672;47.638;19.026;2023-02-12T19:39:54;102137.53;;;-1.00;86.74
42761;BME280;31672;47.638;19.026;2023-02-12T19:44:57;102131.78;;;-1.12;86.98
42761;BME280;31672;47.638;19.026;2023-02-12T19:50:01;102131.19;;;-1.21;87.91
42761;BME280;31672;47.638;19.026;2023-02-12T19:55:05;102154.03;;;-1.29;88.21
42761;BME280;31672;47.638;19.026;2023-02-12T20:00:08;102161.81;;;-1.28;88.60
42761;BME280;31672;47.638;19.026;2023-02-12T20:05:12;102156.59;;;-1.28;89.35
42761;BME280;31672;47.638;19.026;2023-02-12T20:10:15;102173.09;;;-1.27;89.16
42761;BME280;31672;47.638;19.026;2023-02-12T20:15:20;102164.56;;;-1.32;89.69
42761;BME280;31672;47.638;19.026;2023-02-12T20:20:27;102174.31;;;-1.39;90.03
42761;BME280;31672;47.638;19.026;2023-02-12T20:25:31;102170.13;;;-1.45;90.22
42761;BME280;31672;47.638;19.026;2023-02-12T20:30:39;102185.13;;;-1.53;90.31
42761;BME280;31672;47.638;19.026;2023-02-12T20:35:42;102196.53;;;-1.57;90.80
42761;BME280;31672;47.638;19.026;2023-02-12T20:40:45;102201.09;;;-1.65;91.05
42761;BME280;31672;47.638;19.026;2023-02-12T20:45:49;102202.22;;;-1.74;91.38
42761;BME280;31672;47.638;19.026;2023-02-12T20:50:52;102212.81;;;-1.81;91.49
42761;BME280;31672;47.638;19.026;2023-02-12T20:56:04;102212.91;;;-1.84;91.68
42761;BME280;31672;47.638;19.026;2023-02-12T21:01:14;102213.81;;;-1.87;92.32
42761;BME280;31672;47.638;19.026;2023-02-12T21:06:20;102224.25;;;-1.87;92.52
42761;BME280;31672;47.638;19.026;2023-02-12T21:11:26;102225.09;;;-1.86;92.65
42761;BME280;31672;47.638;19.026;2023-02-12T21:16:39;102214.69;;;-1.86;93.26
42761;BME280;31672;47.638;19.026;2023-02-12T21:21:43;102204.41;;;-1.91;93.31
42761;BME280;31672;47.638;19.026;2023-02-12T21:26:47;102209.72;;;-1.96;93.34
42761;BME280;31672;47.638;19.026;2023-02-12T21:31:51;102208.16;;;-2.03;93.57
42761;BME280;31672;47.638;19.026;2023-02-12T21:36:55;102220.41;;;-2.06;93.70
42761;BME280;31672;47.638;19.026;2023-02-12T21:42:02;102235.38;;;-2.16;93.70
42761;BME280;31672;47.638;19.026;2023-02-12T21:47:05;102243.44;;;-2.25;94.50
42761;BME280;31672;47.638;19.026;2023-02-12T21:52:11;102242.78;;;-2.33;94.15
42761;BME280;31672;47.638;19.026;2023-02-12T21:57:13;102261.13;;;-2.39;94.30
42761;BME280;31672;47.638;19.026;2023-02-12T22:02:21;102264.72;;;-2.45;94.35
42761;BME280;31672;47.638;19.026;2023-02-12T22:07:24;102259.66;;;-2.51;94.54
42761;BME280;31672;47.638;19.026;2023-02-12T22:12:27;102268.34;;;-2.52;95.27
42761;BME280;31672;47.638;19.026;2023-02-12T22:17:34;102271.81;;;-2.52;95.24
42761;BME280;31672;47.638;19.026;2023-02-12T22:22:37;102272.63;;;-2.50;95.54
42761;BME280;31672;47.638;19.026;2023-02-12T22:27:40;102269.00;;;-2.43;96.19
42761;BME280;31672;47.638;19.026;2023-02-12T22:32:43;102269.56;;;-2.30;96.42
42761;BME280;31672;47.638;19.026;2023-02-12T22:37:46;102276.53;;;-2.30;96.70
42761;BME280;31672;47.638;19.026;2023-02-12T22:42:49;102288.78;;;-2.35;96.66
42761;BME280;31672;47.638;19.026;2023-02-12T22:47:52;102278.53;;;-2.42;96.69
42761;BME280;31672;47.638;19.026;2023-02-12T22:52:55;102278.66;;;-2.48;96.91
42761;BME280;31672;47.638;19.026;2023-02-12T22:57:59;102290.13;;;-2.56;96.95
42761;BME280;31672;47.638;19.026;2023-02-12T23:03:02;102291.25;;;-2.68;96.84
42761;BME280;31672;47.638;19.026;2023-02-12T23:08:06;102289.72;;;-2.78;97.02
42761;BME280;31672;47.638;19.026;2023-02-12T23:13:09;102295.06;;;-2.84;96.99
42761;BME280;31672;47.638;19.026;2023-02-12T23:18:30;102296.97;;;-2.92;97.26
42761;BME280;31672;47.638;19.026;2023-02-12T23:23:33;102299.66;;;-2.97;97.09
42761;BME280;31672;47.638;19.026;2023-02-12T23:28:36;102288.47;;;-3.02;97.52
42761;BME280;31672;47.638;19.026;2023-02-12T23:33:39;102291.16;;;-3.05;97.48
42761;BME280;31672;47.638;19.026;2023-02-12T23:38:42;102295.50;;;-3.06;97.64
42761;BME280;31672;47.638;19.026;2023-02-12T23:43:45;102299.84;;;-3.08;97.67
42761;BME280;31672;47.638;19.026;2023-02-12T23:48:48;102287.78;;;-3.10;97.79
42761;BME280;31672;47.638;19.026;2023-02-12T23:53:52;102293.00;;;-3.13;98.17
42761;BME280;31672;47.638;19.026;2023-02-12T23:58:55;102278.41;;;-3.20;98.15
